createdAt,value
2017-01-06T10:30:34.278Z,78.43
2017-01-06T10:31:34.271Z,78.62
2017-01-06T10:32:34.388Z,78.49
2017-01-06T10:33:33.709Z,77.86
2017-01-06T10:34:34.339Z,77.67
2017-01-06T10:35:33.588Z,78.24
2017-01-06T10:36:34.304Z,77.48
2017-01-06T10:37:33.939Z,76.95
2017-01-06T10:38:34.266Z,76.39
2017-01-06T10:39:33.577Z,74.81
2017-01-06T10:40:33.570Z,74.15
2017-01-06T10:41:33.863Z,76.34
2017-01-06T10:42:34.266Z,76.87
2017-01-06T10:43:34.015Z,78.67
2017-01-06T10:44:33.482Z,79.15
2017-01-06T10:45:33.463Z,78.67
2017-01-06T10:46:33.754Z,77.86
2017-01-06T10:47:33.337Z,76.95
2017-01-06T10:48:33.734Z,76.1
2017-01-06T10:49:34.052Z,76.63
2017-01-06T10:50:33.362Z,77.2
2017-01-06T10:51:33.247Z,77.83
2017-01-06T10:52:33.332Z,78.87
2017-01-06T10:53:33.971Z,78.96
2017-01-06T10:54:33.915Z,78.58
2017-01-06T10:55:33.748Z,77.96
2017-01-06T10:56:33.772Z,77.48
2017-01-06T10:57:33.129Z,77.16
2017-01-06T10:58:33.854Z,76.25
2017-01-06T10:59:33.828Z,75.96
2017-01-06T11:00:33.483Z,75.34
2017-01-06T11:01:33.797Z,74.33
2017-01-06T11:02:33.771Z,73.19
2017-01-06T11:03:33.755Z,73.72
2017-01-06T11:04:33.734Z,73.54
2017-01-06T11:05:33.039Z,73.54
2017-01-06T11:06:33.704Z,73.44
2017-01-06T11:07:33.330Z,73.72
2017-01-06T11:08:33.100Z,74.68
2017-01-06T11:09:33.632Z,74.39
2017-01-06T11:10:33.632Z,74.58
2017-01-06T11:11:33.443Z,74.68
2017-01-06T11:12:33.230Z,74.58
2017-01-06T11:13:33.529Z,74.92
2017-01-06T11:14:33.518Z,76.97
2017-01-06T11:15:32.843Z,78.92
2017-01-06T11:16:33.158Z,78.87
2017-01-06T11:17:33.444Z,77.48
2017-01-06T11:18:32.845Z,76.1
2017-01-06T11:19:33.412Z,74.77
2017-01-06T11:20:33.077Z,74.49
2017-01-06T11:21:33.364Z,75.11
2017-01-06T11:22:32.638Z,75.96
2017-01-06T11:23:33.202Z,76.34
2017-01-06T11:24:32.571Z,75.78
2017-01-06T11:25:33.284Z,76.15
2017-01-06T11:26:33.273Z,76.34
2017-01-06T11:27:33.263Z,77.45
2017-01-06T11:28:33.223Z,78.77
2017-01-06T11:29:32.915Z,78.39
2017-01-06T11:30:33.191Z,78.77
2017-01-06T11:31:33.170Z,77.67
2017-01-06T11:32:32.805Z,77.16
2017-01-06T11:33:32.798Z,77.48
2017-01-06T11:34:33.125Z,77.35
2017-01-06T11:35:32.738Z,78.11
2017-01-06T11:36:33.054Z,77.35
2017-01-06T11:37:32.378Z,77.48
2017-01-06T11:38:32.994Z,78.11
2017-01-06T11:39:32.989Z,77.73
2017-01-06T11:40:32.975Z,77.64
2017-01-06T11:41:32.296Z,77.29
2017-01-06T11:42:32.940Z,77.54
2017-01-06T11:43:32.169Z,77.01
2017-01-06T11:44:32.536Z,77.25
2017-01-06T11:45:32.861Z,78.58
2017-01-06T11:46:32.178Z,78.39
2017-01-06T11:47:32.501Z,77.39
2017-01-06T11:48:32.139Z,76.39
2017-01-06T11:49:32.781Z,74.87
2017-01-06T11:50:32.601Z,75.15
2017-01-06T11:51:32.072Z,75.87
2017-01-06T11:52:32.700Z,76.87
2017-01-06T11:53:32.688Z,76.44
2017-01-06T11:54:32.324Z,75.96
2017-01-06T11:55:32.643Z,75.31
2017-01-06T11:56:32.595Z,74.58
2017-01-06T11:57:32.598Z,74.2
2017-01-06T11:58:31.843Z,73.72
2017-01-06T11:59:32.540Z,74.35
2017-01-06T12:00:31.868Z,74.83
2017-01-06T12:01:31.846Z,76.06
2017-01-06T12:02:32.488Z,75.87
2017-01-06T12:03:32.126Z,75.53
2017-01-06T12:04:32.444Z,74.39
2017-01-06T12:05:31.770Z,74.83
2017-01-06T12:06:31.660Z,75.78
2017-01-06T12:07:32.339Z,75.53
2017-01-06T12:08:32.035Z,75.05
2017-01-06T12:09:32.329Z,74.01
2017-01-06T12:10:31.661Z,73.86
2017-01-06T12:11:32.295Z,73.1
2017-01-06T12:12:31.536Z,73.38
2017-01-06T12:13:32.222Z,74.35
2017-01-06T12:14:32.230Z,74.83
2017-01-06T12:15:31.550Z,75.4
2017-01-06T12:16:32.178Z,76.54
2017-01-06T12:17:32.149Z,78.73
2017-01-06T12:18:32.132Z,80.96
2017-01-06T12:19:32.122Z,82.76
2017-01-06T12:20:31.440Z,83.14
2017-01-06T12:21:31.927Z,83.52
2017-01-06T12:22:31.711Z,83.43
2017-01-06T12:23:31.688Z,83.81
2017-01-06T12:24:31.343Z,85
2017-01-06T12:25:31.969Z,85.66
2017-01-06T12:26:31.288Z,86.41
2017-01-06T12:27:31.186Z,86.6
2017-01-06T12:28:31.157Z,85.94
2017-01-06T12:29:31.242Z,85.57
2017-01-06T12:30:31.842Z,85.57
2017-01-06T12:31:31.818Z,85.8
2017-01-06T12:32:31.463Z,86.04
2017-01-06T12:33:31.770Z,85.94
2017-01-06T12:34:31.424Z,86.79
2017-01-06T12:35:30.992Z,86.89
2017-01-06T12:36:31.698Z,87.36
2017-01-06T12:37:31.684Z,86.41
2017-01-06T12:38:31.004Z,86.22
2017-01-06T12:39:30.993Z,85.23
2017-01-06T12:40:30.978Z,84.85
2017-01-06T12:41:30.837Z,84.85
2017-01-06T12:42:31.415Z,84.85
2017-01-06T12:43:30.868Z,85.85
2017-01-06T12:44:31.495Z,86.13
2017-01-06T12:45:31.484Z,85.94
2017-01-06T12:46:30.718Z,85.94
2017-01-06T12:47:31.431Z,86.04
2017-01-06T12:48:30.759Z,85.7
2017-01-06T12:49:31.096Z,85.23
2017-01-06T12:50:31.385Z,86.93
2017-01-06T12:51:31.047Z,85.61
2017-01-06T12:52:30.648Z,84.75
2017-01-06T12:53:30.947Z,84
2017-01-06T12:54:31.260Z,83.43
2017-01-06T12:55:31.141Z,82.62
2017-01-06T12:56:30.542Z,82.76
2017-01-06T12:57:31.159Z,82.57
2017-01-06T12:58:31.155Z,82.76
2017-01-06T12:59:31.122Z,82.76
2017-01-06T13:00:30.770Z,83.43
2017-01-06T13:01:31.077Z,84.09
2017-01-06T13:02:31.044Z,84.14
2017-01-06T13:03:31.021Z,84.81
2017-01-06T13:04:30.343Z,84.9
2017-01-06T13:05:30.965Z,85.94
2017-01-06T13:06:30.940Z,86.32
2017-01-06T13:07:30.950Z,86.51
2017-01-06T13:08:30.252Z,86.22
2017-01-06T13:09:30.743Z,86.32
2017-01-06T13:10:30.184Z,85.85
2017-01-06T13:11:30.957Z,87.13
2017-01-06T13:12:30.791Z,87.41
2017-01-06T13:13:30.779Z,88.55
2017-01-06T13:14:30.429Z,88.45
2017-01-06T13:15:30.062Z,88.36
2017-01-06T13:16:30.031Z,88.55
2017-01-06T13:17:30.339Z,88.36
2017-01-06T13:18:29.980Z,88.74
2017-01-06T13:19:30.620Z,88.17
2017-01-06T13:20:30.588Z,88.17
2017-01-06T13:21:30.410Z,87.6
2017-01-06T13:22:29.871Z,87.6
2017-01-06T13:23:30.492Z,87.88
2017-01-06T13:24:29.822Z,88.45
2017-01-06T13:25:30.446Z,87.7
2017-01-06T13:26:29.775Z,87.7
2017-01-06T13:27:30.401Z,87.32
2017-01-06T13:28:30.380Z,86.04
2017-01-06T13:29:30.013Z,84.66
2017-01-06T13:30:29.665Z,83.52
2017-01-06T13:31:29.633Z,82.86
2017-01-06T13:32:29.606Z,83.58
2017-01-06T13:33:29.582Z,83.2
2017-01-06T13:34:30.200Z,83.01
2017-01-06T13:35:29.856Z,82.34
2017-01-06T13:36:30.166Z,82.06
2017-01-06T13:37:30.128Z,82.63
2017-01-06T13:38:29.468Z,82.63
2017-01-06T13:39:30.091Z,82.82
2017-01-06T13:40:29.315Z,82.72
2017-01-06T13:41:29.695Z,83.25
2017-01-06T13:42:29.867Z,83.39
2017-01-06T13:43:29.972Z,83.67
2017-01-06T13:44:29.974Z,83.29
2017-01-06T13:45:29.191Z,84.23
2017-01-06T13:46:29.772Z,84.33
2017-01-06T13:47:29.141Z,84.05
2017-01-06T13:48:29.191Z,84.2
2017-01-06T13:49:29.839Z,84.67
2017-01-06T13:50:29.149Z,84.14
2017-01-06T13:51:29.119Z,83.58
2017-01-06T13:52:29.409Z,83.29
2017-01-06T13:53:28.982Z,83.39
2017-01-06T13:54:29.039Z,83.58
2017-01-06T13:55:29.667Z,82.72
2017-01-06T13:56:29.639Z,83.29
2017-01-06T13:57:28.875Z,84.01
2017-01-06T13:58:29.246Z,83.86
2017-01-06T13:59:28.905Z,83.91
2017-01-06T14:00:29.394Z,83.91
2017-01-06T14:01:28.768Z,84.01
2017-01-06T14:02:29.152Z,83.82
2017-01-06T14:03:28.727Z,84.52
2017-01-06T14:04:29.297Z,84.39
2017-01-06T14:05:28.680Z,84.14
2017-01-06T14:06:29.048Z,84.81
2017-01-06T14:07:29.337Z,84.42
2017-01-06T14:08:28.984Z,84.33
2017-01-06T14:09:29.019Z,83.76
2017-01-06T14:10:29.205Z,82.1
2017-01-06T14:11:28.596Z,81.53
2017-01-06T14:12:28.875Z,81.34
2017-01-06T14:13:29.180Z,80.87
2017-01-06T14:14:28.466Z,81.63
2017-01-06T14:15:29.127Z,81.82
2017-01-06T14:16:28.772Z,82.25
2017-01-06T14:17:28.853Z,82.72
2017-01-06T14:18:28.333Z,82.72
2017-01-06T14:19:29.013Z,82.15
2017-01-06T14:20:28.346Z,81.63
2017-01-06T14:21:28.974Z,81.77
2017-01-06T14:22:28.941Z,81.96
2017-01-06T14:23:28.919Z,82.91
2017-01-06T14:24:28.245Z,82.82
2017-01-06T14:25:28.210Z,82.91
2017-01-06T14:26:28.830Z,82.44
2017-01-06T14:27:28.676Z,82.34
2017-01-06T14:28:28.788Z,81.77
2017-01-06T14:29:28.757Z,81.96
2017-01-06T14:30:28.736Z,82.15
2017-01-06T14:31:28.715Z,82.87
2017-01-06T14:32:28.546Z,83.34
2017-01-06T14:33:28.645Z,83.91
2017-01-06T14:34:28.295Z,84.01
2017-01-06T14:35:28.594Z,84.67
2017-01-06T14:36:28.245Z,84.77
2017-01-06T14:37:28.533Z,85.8
2017-01-06T14:38:28.183Z,85.99
2017-01-06T14:39:28.483Z,86.99
2017-01-06T14:40:28.326Z,86.9
2017-01-06T14:41:28.099Z,87.46
2017-01-06T14:42:28.411Z,88.12
2017-01-06T14:43:28.047Z,88.5
2017-01-06T14:44:27.695Z,88.6
2017-01-06T14:45:27.990Z,88.6
2017-01-06T14:46:27.955Z,88.22
2017-01-06T14:47:27.929Z,87.98
2017-01-06T14:48:27.592Z,88.17
2017-01-06T14:49:28.204Z,88.36
2017-01-06T14:50:28.190Z,87.7
2017-01-06T14:51:27.837Z,87.23
2017-01-06T14:52:28.126Z,87.23
2017-01-06T14:53:28.115Z,88.31
2017-01-06T14:54:28.055Z,88.6
2017-01-06T14:55:28.050Z,89.26
2017-01-06T14:56:27.359Z,89.45
2017-01-06T14:57:27.986Z,88.88
2017-01-06T14:58:27.954Z,89.36
2017-01-06T14:59:27.977Z,89.54
2017-01-06T15:00:27.557Z,89.54
2017-01-06T15:01:27.536Z,89.17
2017-01-06T15:02:27.186Z,89.17
2017-01-06T15:03:27.822Z,88.98
2017-01-06T15:04:27.453Z,88.5
2017-01-06T15:05:27.761Z,88.41
2017-01-06T15:06:27.754Z,88.69
2017-01-06T15:07:27.801Z,88.41
2017-01-06T15:08:27.026Z,88.31
2017-01-06T15:09:27.536Z,88.55
2017-01-06T15:10:27.624Z,88.12
2017-01-06T15:11:26.975Z,88.5
2017-01-06T15:12:27.571Z,88.6
2017-01-06T15:13:27.480Z,88.69
2017-01-06T15:14:27.523Z,88.98
2017-01-06T15:15:27.510Z,88.88
2017-01-06T15:16:27.454Z,88.36
2017-01-06T15:17:27.428Z,88.26
2017-01-06T15:18:27.404Z,88.88
2017-01-06T15:19:27.417Z,88.88
2017-01-06T15:20:26.681Z,89.07
2017-01-06T15:21:26.660Z,88.98
2017-01-06T15:22:27.298Z,90.01
2017-01-06T15:23:26.917Z,90.11
2017-01-06T15:24:27.207Z,89.83
2017-01-06T15:25:26.864Z,89.83
2017-01-06T15:26:26.838Z,89.73
2017-01-06T15:27:26.808Z,89.17
2017-01-06T15:28:27.103Z,89.64
2017-01-06T15:29:26.925Z,89.64
2017-01-06T15:30:26.725Z,89.45
2017-01-06T15:31:27.024Z,89.54
2017-01-06T15:32:26.990Z,89.36
2017-01-06T15:33:26.966Z,89.31
2017-01-06T15:34:26.614Z,88.74
2017-01-06T15:35:26.916Z,88.5
2017-01-06T15:36:26.221Z,88.98
2017-01-06T15:37:26.847Z,88.88
2017-01-06T15:38:26.827Z,89.36
2017-01-06T15:39:26.785Z,89.17
2017-01-06T15:40:26.439Z,89.45
2017-01-06T15:41:26.747Z,89.64
2017-01-06T15:42:26.725Z,89.83
2017-01-06T15:43:26.037Z,90.11
2017-01-06T15:44:26.747Z,90.3
2017-01-06T15:45:26.626Z,90.49
2017-01-06T15:46:26.666Z,90.2
2017-01-06T15:47:26.233Z,90.11
2017-01-06T15:48:26.554Z,90.2
2017-01-06T15:49:26.498Z,90.3
2017-01-06T15:50:26.469Z,90.3
2017-01-06T15:51:25.708Z,90.77
2017-01-06T15:52:25.774Z,90.86
2017-01-06T15:53:25.755Z,90.68
2017-01-06T15:54:26.041Z,90.3
2017-01-06T15:55:26.341Z,90.01
2017-01-06T15:56:25.576Z,90.11
2017-01-06T15:57:26.286Z,89.92
2017-01-06T15:58:26.251Z,89.83
2017-01-06T15:59:26.241Z,90.39
2017-01-06T16:00:26.211Z,90.58
2017-01-06T16:01:26.190Z,90.77
2017-01-06T16:02:26.137Z,90.49
2017-01-06T16:03:26.112Z,90.49
2017-01-06T16:04:26.108Z,90.96
2017-01-06T16:05:26.058Z,90.96
2017-01-06T16:06:25.300Z,91.43
2017-01-06T16:07:25.353Z,91.53
2017-01-06T16:08:26.115Z,90.96
2017-01-06T16:09:25.297Z,90.68
2017-01-06T16:10:25.193Z,90.77
2017-01-06T16:11:25.916Z,90.2
2017-01-06T16:12:25.793Z,90.63
2017-01-06T16:13:25.102Z,90.63
2017-01-06T16:14:25.823Z,90.53
2017-01-06T16:15:25.771Z,90.3
2017-01-06T16:16:25.747Z,89.87
2017-01-06T16:17:25.717Z,89.45
2017-01-06T16:18:25.681Z,89.54
2017-01-06T16:19:25.667Z,89.54
2017-01-06T16:20:25.022Z,89.92
2017-01-06T16:21:24.955Z,90.58
2017-01-06T16:22:25.237Z,91.34
2017-01-06T16:23:25.551Z,90.96
2017-01-06T16:24:25.387Z,90.58
2017-01-06T16:25:25.494Z,90.68
2017-01-06T16:26:25.465Z,91.15
2017-01-06T16:27:25.428Z,91.24
2017-01-06T16:28:24.745Z,91.34
2017-01-06T16:29:24.633Z,90.68
2017-01-06T16:30:25.356Z,90.96
2017-01-06T16:31:24.996Z,91.24
2017-01-06T16:32:25.280Z,91.24
2017-01-06T16:33:24.933Z,91.24
2017-01-06T16:34:24.503Z,91.62
2017-01-06T16:35:25.324Z,91.81
2017-01-06T16:36:25.032Z,91.62
2017-01-06T16:37:25.162Z,91.91
2017-01-06T16:38:25.129Z,91.81
2017-01-06T16:39:24.442Z,92.1
2017-01-06T16:40:24.320Z,91.91
2017-01-06T16:41:25.020Z,91.91
2017-01-06T16:42:24.670Z,91.72
2017-01-06T16:43:24.633Z,91.91
2017-01-06T16:44:24.283Z,92.1
2017-01-06T16:45:24.948Z,92.57
2017-01-06T16:46:24.949Z,92.57
2017-01-06T16:47:24.212Z,93.23
2017-01-06T16:48:24.830Z,92.57
2017-01-06T16:49:24.816Z,92.47
2017-01-06T16:50:24.035Z,92.66
2017-01-06T16:51:24.816Z,92.94
2017-01-06T16:52:24.383Z,93.04
2017-01-06T16:53:24.694Z,93.23
2017-01-06T16:54:23.932Z,93.51
2017-01-06T16:55:24.636Z,94.03
2017-01-06T16:56:23.861Z,95.07
2017-01-06T16:57:24.242Z,95.07
2017-01-06T16:58:24.541Z,95.07
2017-01-06T16:59:24.544Z,94.84
2017-01-06T17:00:24.348Z,95.03
2017-01-06T17:01:24.469Z,95.36
2017-01-06T17:02:23.799Z,95.54
2017-01-06T17:03:23.679Z,95.92
2017-01-06T17:04:23.717Z,96.87
2017-01-06T17:05:24.208Z,97.63
2017-01-06T17:06:23.659Z,97.34
2017-01-06T17:07:24.293Z,97.91
2017-01-06T17:08:23.526Z,98.47
2017-01-06T17:09:23.891Z,98.57
2017-01-06T17:10:24.071Z,98.38
2017-01-06T17:11:24.021Z,98.38
2017-01-06T17:12:24.151Z,98.19
2017-01-06T17:13:23.780Z,98
2017-01-06T17:14:24.094Z,98.19
2017-01-06T17:15:23.713Z,97.53
2017-01-06T17:16:24.022Z,97.06
2017-01-06T17:17:23.342Z,96.11
2017-01-06T17:18:23.962Z,96.02
2017-01-06T17:19:23.615Z,96.4
2017-01-06T17:20:23.177Z,96.49
2017-01-06T17:21:23.891Z,95.83
2017-01-06T17:22:23.520Z,96.3
2017-01-06T17:23:23.210Z,96.68
2017-01-06T17:24:23.139Z,97.15
2017-01-06T17:25:23.109Z,97.86
2017-01-06T17:26:23.390Z,97.91
2017-01-06T17:27:23.726Z,98.1
2017-01-06T17:28:23.023Z,98
2017-01-06T17:29:23.647Z,97.81
2017-01-06T17:30:23.623Z,97.81
2017-01-06T17:31:23.038Z,97.81
2017-01-06T17:32:23.587Z,98.1
2017-01-06T17:33:23.557Z,97.91
2017-01-06T17:34:23.428Z,98.43
2017-01-06T17:35:23.153Z,98.71
2017-01-06T17:36:22.854Z,98.33
2017-01-06T17:37:23.271Z,98.61
2017-01-06T17:38:23.391Z,98.43
2017-01-06T17:39:23.217Z,98.19
2017-01-06T17:40:22.992Z,97.81
2017-01-06T17:41:22.553Z,97.53
2017-01-06T17:42:22.528Z,96.87
2017-01-06T17:43:23.228Z,96.78
2017-01-06T17:44:23.232Z,96.87
2017-01-06T17:45:22.523Z,96.96
2017-01-06T17:46:22.508Z,98
2017-01-06T17:47:22.784Z,98.05
2017-01-06T17:48:22.354Z,98.76
2017-01-06T17:49:22.411Z,97.91
2017-01-06T17:50:22.380Z,98
2017-01-06T17:51:22.990Z,97.91
2017-01-06T17:52:22.958Z,97.72
2017-01-06T17:53:22.661Z,97.72
2017-01-06T17:54:22.269Z,97.53
2017-01-06T17:55:22.916Z,97.34
2017-01-06T17:56:22.850Z,97.25
2017-01-06T17:57:22.168Z,97.06
2017-01-06T17:58:22.639Z,96.87
2017-01-06T17:59:22.435Z,96.59
2017-01-06T18:00:22.741Z,96.4
2017-01-06T18:01:22.735Z,96.4
2017-01-06T18:02:22.344Z,96.78
2017-01-06T18:03:22.656Z,96.96
2017-01-06T18:04:22.288Z,97.53
2017-01-06T18:05:22.256Z,97.44
2017-01-06T18:06:22.224Z,97.25
2017-01-06T18:07:22.540Z,97.53
2017-01-06T18:08:22.543Z,97.25
2017-01-06T18:09:21.833Z,97.06
2017-01-06T18:10:21.795Z,97.34
2017-01-06T18:11:22.399Z,96.78
2017-01-06T18:12:21.735Z,96.96
2017-01-06T18:13:21.700Z,97.44
2017-01-06T18:14:21.588Z,97.25
2017-01-06T18:15:21.963Z,97.53
2017-01-06T18:16:21.612Z,97.81
2017-01-06T18:17:22.228Z,97.81
2017-01-06T18:18:22.220Z,97.25
2017-01-06T18:19:22.186Z,96.96
2017-01-06T18:20:22.176Z,96.87
2017-01-06T18:21:21.484Z,96.59
2017-01-06T18:22:21.461Z,96.96
2017-01-06T18:23:21.417Z,97.44
2017-01-06T18:24:22.035Z,97.44
2017-01-06T18:25:21.668Z,97.25
2017-01-06T18:26:21.335Z,97.06
2017-01-06T18:27:21.993Z,97.15
2017-01-06T18:28:21.909Z,97.06
2017-01-06T18:29:21.887Z,97.15
2017-01-06T18:30:21.873Z,97.53
2017-01-06T18:31:21.840Z,98
2017-01-06T18:32:21.156Z,97.63
2017-01-06T18:33:21.791Z,98
2017-01-06T18:34:21.412Z,97.91
2017-01-06T18:35:21.732Z,98.19
2017-01-06T18:36:21.671Z,97.72
2017-01-06T18:37:21.659Z,97.44
2017-01-06T18:38:21.627Z,96.59
2017-01-06T18:39:21.595Z,96.21
2017-01-06T18:40:20.909Z,95.83
2017-01-06T18:41:21.561Z,96.21
2017-01-06T18:42:21.179Z,95.92
2017-01-06T18:43:20.937Z,95.64
2017-01-06T18:44:20.793Z,95.64
2017-01-06T18:45:21.425Z,95.45
2017-01-06T18:46:20.748Z,94.98
2017-01-06T18:47:21.347Z,95.92
2017-01-06T18:48:21.325Z,95.36
2017-01-06T18:49:20.778Z,95.54
2017-01-06T18:50:21.290Z,95.54
2017-01-06T18:51:21.234Z,95.45
2017-01-06T18:52:21.080Z,95.54
2017-01-06T18:53:21.195Z,95.54
2017-01-06T18:54:20.494Z,95.36
2017-01-06T18:55:20.481Z,95.17
2017-01-06T18:56:21.125Z,94.89
2017-01-06T18:57:21.079Z,95.17
2017-01-06T18:58:20.402Z,94.79
2017-01-06T18:59:20.873Z,94.98
2017-01-06T19:00:20.983Z,95.45
2017-01-06T19:01:20.629Z,95.45
2017-01-06T19:02:20.584Z,95.17
2017-01-06T19:03:20.246Z,95.07
2017-01-06T19:04:20.525Z,95.45
2017-01-06T19:05:20.106Z,95.36
2017-01-06T19:06:20.475Z,95.73
2017-01-06T19:07:20.647Z,95.73
2017-01-06T19:08:20.881Z,95.73
2017-01-06T19:09:20.737Z,95.92
2017-01-06T19:10:20.353Z,96.4
2017-01-06T19:11:20.343Z,96.59
2017-01-06T19:12:20.684Z,96.68
2017-01-06T19:13:20.613Z,96.59
2017-01-06T19:14:20.581Z,96.68
2017-01-06T19:15:20.550Z,96.59
2017-01-06T19:16:19.801Z,96.3
2017-01-06T19:17:20.148Z,96.59
2017-01-06T19:18:20.488Z,96.78
2017-01-06T19:19:19.687Z,96.3
2017-01-06T19:20:20.408Z,95.54
2017-01-06T19:21:20.380Z,95.54
2017-01-06T19:22:19.600Z,96.21
2017-01-06T19:23:20.316Z,95.83
2017-01-06T19:24:19.953Z,95.36
2017-01-06T19:25:20.258Z,94.79
2017-01-06T19:26:20.294Z,94.89
2017-01-06T19:27:19.539Z,94.7
2017-01-06T19:28:19.523Z,95.26
2017-01-06T19:29:19.996Z,94.41
2017-01-06T19:30:19.782Z,94.41
2017-01-06T19:31:19.732Z,94.89
2017-01-06T19:32:19.501Z,94.22
2017-01-06T19:33:19.878Z,94.32
2017-01-06T19:34:19.778Z,94.22
2017-01-06T19:35:19.629Z,94.13
2017-01-06T19:36:19.296Z,94.41
2017-01-06T19:37:19.571Z,94.89
2017-01-06T19:38:19.225Z,95.17
2017-01-06T19:39:19.517Z,94.7
2017-01-06T19:40:19.094Z,94.13
2017-01-06T19:41:19.467Z,94.13
2017-01-06T19:42:19.778Z,94.13
2017-01-06T19:43:19.385Z,93.94
2017-01-06T19:44:19.543Z,93.28
2017-01-06T19:45:19.322Z,93.75
2017-01-06T19:46:19.631Z,94.03
2017-01-06T19:47:19.597Z,94.6
2017-01-06T19:48:19.261Z,94.32
2017-01-06T19:49:19.213Z,94.32
2017-01-06T19:50:19.189Z,94.13
2017-01-06T19:51:19.350Z,94.13
2017-01-06T19:52:19.476Z,94.32
2017-01-06T19:53:19.449Z,94.22
2017-01-06T19:54:19.398Z,94.13
2017-01-06T19:55:19.376Z,94.6
2017-01-06T19:56:19.367Z,94.6
2017-01-06T19:57:18.671Z,94.6
2017-01-06T19:58:19.306Z,94.13
2017-01-06T19:59:19.119Z,94.41
2017-01-06T20:00:18.579Z,94.7
2017-01-06T20:01:19.086Z,94.32
2017-01-06T20:02:18.844Z,94.03
2017-01-06T20:03:19.154Z,94.32
2017-01-06T20:04:18.802Z,94.13
2017-01-06T20:05:18.736Z,94.03
2017-01-06T20:06:18.334Z,94.79
2017-01-06T20:07:19.050Z,95.31
2017-01-06T20:08:19.172Z,95.97
2017-01-06T20:09:18.750Z,96.06
2017-01-06T20:10:18.753Z,96.16
2017-01-06T20:11:19.302Z,96.25
2017-01-06T20:12:18.481Z,96.16
2017-01-06T20:13:18.636Z,96.35
2017-01-06T20:14:18.670Z,96.35
2017-01-06T20:15:18.315Z,96.11
2017-01-06T20:16:18.966Z,95.54
2017-01-06T20:17:18.226Z,95.73
2017-01-06T20:18:18.206Z,95.45
2017-01-06T20:19:18.438Z,95.36
2017-01-06T20:20:18.605Z,95.07
2017-01-06T20:21:18.663Z,94.41
2017-01-06T20:22:18.323Z,94.41
2017-01-06T20:23:18.761Z,94.41
2017-01-06T20:24:18.812Z,94.41
2017-01-06T20:25:17.811Z,94.79
2017-01-06T20:26:17.963Z,95.4
2017-01-06T20:27:18.648Z,95.68
2017-01-06T20:28:18.127Z,95.68
2017-01-06T20:29:18.527Z,95.78
2017-01-06T20:30:18.585Z,96.06
2017-01-06T20:31:18.034Z,96.11
2017-01-06T20:32:18.069Z,95.68
2017-01-06T20:33:18.686Z,95.78
2017-01-06T20:34:18.647Z,95.59
2017-01-06T20:35:18.530Z,95.73
2017-01-06T20:36:17.777Z,95.78
2017-01-06T20:37:18.484Z,95.07
2017-01-06T20:38:17.942Z,95.17
2017-01-06T20:39:17.583Z,95.36
2017-01-06T20:40:18.194Z,95.59
2017-01-06T20:41:17.800Z,96.25
2017-01-06T20:42:18.242Z,95.59
2017-01-06T20:43:18.193Z,95.87
2017-01-06T20:44:17.994Z,96.11
2017-01-06T20:45:17.708Z,95.87
2017-01-06T20:46:18.169Z,95.92
2017-01-06T20:47:17.596Z,96.02
2017-01-06T20:48:18.000Z,95.83
2017-01-06T20:49:18.108Z,95.97
2017-01-06T20:50:18.098Z,96.16
2017-01-06T20:51:18.188Z,96.16
2017-01-06T20:52:17.251Z,96.73
2017-01-06T20:53:17.978Z,96.63
2017-01-06T20:54:17.489Z,96.78
2017-01-06T20:55:17.865Z,96.54
2017-01-06T20:56:17.767Z,96.82
2017-01-06T20:57:17.743Z,95.87
2017-01-06T20:58:17.743Z,96.16
2017-01-06T20:59:17.653Z,96.54
2017-01-06T21:00:17.251Z,96.82
2017-01-06T21:01:17.648Z,96.49
2017-01-06T21:02:17.580Z,96.82
2017-01-06T21:03:17.562Z,96.82
2017-01-06T21:04:16.825Z,96.54
2017-01-06T21:05:17.053Z,96.91
2017-01-06T21:06:16.679Z,97.29
2017-01-06T21:07:16.529Z,97.48
2017-01-06T21:08:16.905Z,97.1
2017-01-06T21:09:16.882Z,96.73
2017-01-06T21:10:17.202Z,96.91
2017-01-06T21:11:16.820Z,96.63
2017-01-06T21:12:17.139Z,96.35
2017-01-06T21:13:16.725Z,95.83
2017-01-06T21:14:16.724Z,96.21
2017-01-06T21:15:16.941Z,96.21
2017-01-06T21:16:16.714Z,96.4
2017-01-06T21:17:16.732Z,96.3
2017-01-06T21:18:16.650Z,96.82
2017-01-06T21:19:17.044Z,97.01
2017-01-06T21:20:17.073Z,97.06
2017-01-06T21:21:16.925Z,97.29
2017-01-06T21:22:16.286Z,97.29
2017-01-06T21:23:16.890Z,97.48
2017-01-06T21:24:16.941Z,97.67
2017-01-06T21:25:16.778Z,97.77
2017-01-06T21:26:16.871Z,97.67
2017-01-06T21:27:16.370Z,98.05
2017-01-06T21:28:16.704Z,98.61
2017-01-06T21:29:16.023Z,97.77
2017-01-06T21:30:16.354Z,97.96
2017-01-06T21:31:16.626Z,97.48
2017-01-06T21:32:16.705Z,97.67
2017-01-06T21:33:16.505Z,97.86
2017-01-06T21:34:15.913Z,97.96
2017-01-06T21:35:16.441Z,97.86
2017-01-06T21:36:15.723Z,97.77
2017-01-06T21:37:16.372Z,97.77
2017-01-06T21:38:16.091Z,98.14
2017-01-06T21:39:15.746Z,97.86
2017-01-06T21:40:16.479Z,98.61
2017-01-06T21:41:16.324Z,98.14
2017-01-06T21:42:15.908Z,98.9
2017-01-06T21:43:16.078Z,99.94
2017-01-06T21:44:16.207Z,99.08
2017-01-06T21:45:16.209Z,99.46
2017-01-06T21:46:16.135Z,99.27
2017-01-06T21:47:15.436Z,99.27
2017-01-06T21:48:15.727Z,99.46
2017-01-06T21:49:16.060Z,99.37
2017-01-06T21:50:15.620Z,99.18
2017-01-06T21:51:15.945Z,99.27
2017-01-06T21:52:15.370Z,99.18
2017-01-06T21:53:15.869Z,99.84
2017-01-06T21:54:15.494Z,99.65
2017-01-06T21:55:15.454Z,99.46
2017-01-06T21:56:15.022Z,99.94
2017-01-06T21:57:15.752Z,99.94
2017-01-06T21:58:15.569Z,99.94
2017-01-06T21:59:15.326Z,98.99
2017-01-06T22:00:15.631Z,98.76
2017-01-06T22:01:14.955Z,97.81
2017-01-06T22:02:15.630Z,98.66
2017-01-06T22:03:15.207Z,98.57
2017-01-06T22:04:15.516Z,97.81
2017-01-06T22:05:15.498Z,98.14
2017-01-06T22:06:15.437Z,97.77
2017-01-06T22:07:14.915Z,98.14
2017-01-06T22:08:14.726Z,98.24
2017-01-06T22:09:15.362Z,97.86
2017-01-06T22:10:14.670Z,98.14
2017-01-06T22:11:15.294Z,98.43
2017-01-06T22:12:14.614Z,98.52
2017-01-06T22:13:15.231Z,98.9
2017-01-06T22:14:15.204Z,98.99
2017-01-06T22:15:14.849Z,98.71
2017-01-06T22:16:14.500Z,98.9
2017-01-06T22:17:15.129Z,98.71
2017-01-06T22:18:14.760Z,98.24
2017-01-06T22:19:14.404Z,98.61
2017-01-06T22:20:14.697Z,98.52
2017-01-06T22:21:15.006Z,98.71
2017-01-06T22:22:14.639Z,98.9
2017-01-06T22:23:14.608Z,98.52
2017-01-06T22:24:14.253Z,98.99
2017-01-06T22:25:14.542Z,99.37
2017-01-06T22:26:14.189Z,99.37
2017-01-06T22:27:14.664Z,99.27
2017-01-06T22:28:14.802Z,98.8
2017-01-06T22:29:14.116Z,98.99
2017-01-06T22:30:14.726Z,98.52
2017-01-06T22:31:14.051Z,98.33
2017-01-06T22:32:14.521Z,98.71
2017-01-06T22:33:14.643Z,98.8
2017-01-06T22:34:14.620Z,98.24
2017-01-06T22:35:14.572Z,98.52
2017-01-06T22:36:14.220Z,98.33
2017-01-06T22:37:13.784Z,97.67
2017-01-06T22:38:14.488Z,98.05
2017-01-06T22:39:14.472Z,97.77
2017-01-06T22:40:14.434Z,97.29
2017-01-06T22:41:14.419Z,96.91
2017-01-06T22:42:14.360Z,96.82
2017-01-06T22:43:14.363Z,97.48
2017-01-06T22:44:14.318Z,97.96
2017-01-06T22:45:14.277Z,98.14
2017-01-06T22:46:14.115Z,98.14
2017-01-06T22:47:14.216Z,98.14
2017-01-06T22:48:13.842Z,97.96
2017-01-06T22:49:14.144Z,97.77
2017-01-06T22:50:14.121Z,98.14
2017-01-06T22:51:13.761Z,97.86
2017-01-06T22:52:13.731Z,97.67
2017-01-06T22:53:14.019Z,97.96
2017-01-06T22:54:14.006Z,98.14
2017-01-06T22:55:13.660Z,97.58
2017-01-06T22:56:13.300Z,97.01
2017-01-06T22:57:13.909Z,96.68
2017-01-06T22:58:13.878Z,95.73
2017-01-06T22:59:13.710Z,95.92
2017-01-06T23:00:13.819Z,96.02
2017-01-06T23:01:13.057Z,96.25
2017-01-06T23:02:13.761Z,96.63
2017-01-06T23:03:13.084Z,96.63
2017-01-06T23:04:13.707Z,95.97
2017-01-06T23:05:13.675Z,96.25
2017-01-06T23:06:13.624Z,95.87
2017-01-06T23:07:13.693Z,96.16
2017-01-06T23:08:12.853Z,95.45
2017-01-06T23:09:12.819Z,95.54
2017-01-06T23:10:13.547Z,95.21
2017-01-06T23:11:13.497Z,95.59
2017-01-06T23:12:13.481Z,95.59
2017-01-06T23:13:12.779Z,95.4
2017-01-06T23:14:13.402Z,96.16
2017-01-06T23:15:12.739Z,96.11
2017-01-06T23:16:13.331Z,96.25
2017-01-06T23:17:12.677Z,95.87
2017-01-06T23:18:13.292Z,96.16
2017-01-06T23:19:13.267Z,96.82
2017-01-06T23:20:12.573Z,96.63
2017-01-06T23:21:12.852Z,96.73
2017-01-06T23:22:12.899Z,96.44
2017-01-06T23:23:12.471Z,96.82
2017-01-06T23:24:12.764Z,97.01
2017-01-06T23:25:12.334Z,96.63